SAS35F ESSV-LWSK
Flight info
| Callsign | SAS35F |
|---|---|
| Flight time | 2h 18m |
| Altitude | 35000 |
| Route | VSB DCT KAL DCT LUSID DCT REGLI DCT VALPI DCT NIT DCT XOMBA DCT BABIT DCT RIGMU DCT REDVA UL616 KOGAT |
| Aircraft | A320/M-SDE3FGHIRWY/LB1 |
Departure
| Time | 2026-04-22 04:58 |
|---|---|
| Airport | Visby Airport (ESSV) |
Arrival
| Time | 2026-04-22 07:17 |
|---|---|
| Airport | Skopje International Airport (LWSK) |
| Time | Latitude | Longitude | Altitude | Speed | Heading |
|---|---|---|---|---|---|
| 2026-04-22 04:46 | 57.66009 | 18.33929 | 144 ft | 0 kts | 335° |
| 2026-04-22 04:46 | 57.66095 | 18.33987 | 144 ft | 0 kts | 331° |
| 2026-04-22 04:51 | 57.66084 | 18.33998 | 144 ft | 2 kts | 335° |
| 2026-04-22 04:51 | 57.66069 | 18.34006 | 144 ft | 2 kts | 353° |
| 2026-04-22 04:51 | 57.66055 | 18.34007 | 144 ft | 2 kts | 4° |
| 2026-04-22 04:52 | 57.66040 | 18.34002 | 144 ft | 1 kts | 18° |
| 2026-04-22 04:52 | 57.66034 | 18.33998 | 144 ft | 1 kts | 21° |
| 2026-04-22 04:52 | 57.66033 | 18.33997 | 144 ft | 0 kts | 21° |
| 2026-04-22 04:54 | 57.66048 | 18.34008 | 144 ft | 3 kts | 21° |
| 2026-04-22 04:54 | 57.66081 | 18.34032 | 144 ft | 6 kts | 20° |
| 2026-04-22 04:55 | 57.66123 | 18.34077 | 143 ft | 7 kts | 71° |
| 2026-04-22 04:55 | 57.66095 | 18.34162 | 142 ft | 9 kts | 183° |
| 2026-04-22 04:55 | 57.66032 | 18.34121 | 144 ft | 9 kts | 201° |
| 2026-04-22 04:55 | 57.65966 | 18.34073 | 144 ft | 10 kts | 200° |
| 2026-04-22 04:56 | 57.65890 | 18.34020 | 144 ft | 12 kts | 200° |
| 2026-04-22 04:56 | 57.65803 | 18.33957 | 144 ft | 14 kts | 201° |
| 2026-04-22 04:56 | 57.65707 | 18.33887 | 142 ft | 16 kts | 201° |
| 2026-04-22 04:56 | 57.65591 | 18.33803 | 142 ft | 18 kts | 201° |
| 2026-04-22 04:57 | 57.65504 | 18.33748 | 142 ft | 13 kts | 187° |
| 2026-04-22 04:57 | 57.65420 | 18.33813 | 144 ft | 14 kts | 122° |
| 2026-04-22 04:57 | 57.65430 | 18.33990 | 144 ft | 14 kts | 53° |
| 2026-04-22 04:57 | 57.65611 | 18.34149 | 144 ft | 56 kts | 20° |
| 2026-04-22 04:58 | 57.66192 | 18.34565 | 141 ft | 124 kts | 21° |
| 2026-04-22 04:58 | 57.67129 | 18.35243 | 327 ft | 151 kts | 20° |
| 2026-04-22 04:58 | 57.68175 | 18.35319 | 697 ft | 167 kts | 337° |
| 2026-04-22 04:58 | 57.68920 | 18.33643 | 1362 ft | 189 kts | 286° |
| 2026-04-22 04:59 | 57.68854 | 18.30980 | 1781 ft | 223 kts | 255° |
| 2026-04-22 04:59 | 57.68092 | 18.28392 | 2645 ft | 231 kts | 240° |
| 2026-04-22 04:59 | 57.67259 | 18.25970 | 3864 ft | 219 kts | 241° |
| 2026-04-22 04:59 | 57.66431 | 18.23656 | 4691 ft | 223 kts | 240° |
| 2026-04-22 05:00 | 57.65432 | 18.21271 | 5141 ft | 245 kts | 234° |
| 2026-04-22 05:00 | 57.64308 | 18.18776 | 5967 ft | 255 kts | 234° |
| 2026-04-22 05:00 | 57.63141 | 18.16230 | 6790 ft | 264 kts | 234° |
| 2026-04-22 05:00 | 57.61934 | 18.13644 | 7678 ft | 270 kts | 233° |
| 2026-04-22 05:01 | 57.60697 | 18.11005 | 8568 ft | 274 kts | 233° |
| 2026-04-22 05:01 | 57.59392 | 18.08397 | 9316 ft | 285 kts | 222° |
| 2026-04-22 05:01 | 57.57828 | 18.06124 | 10114 ft | 290 kts | 221° |
| 2026-04-22 05:01 | 57.56212 | 18.03852 | 10883 ft | 294 kts | 220° |
| 2026-04-22 05:02 | 57.54563 | 18.01573 | 11656 ft | 298 kts | 219° |
| 2026-04-22 05:02 | 57.52895 | 17.99293 | 12355 ft | 303 kts | 219° |
| 2026-04-22 05:02 | 57.51182 | 17.96993 | 13097 ft | 307 kts | 218° |
| 2026-04-22 05:02 | 57.49452 | 17.94678 | 13764 ft | 312 kts | 218° |
| 2026-04-22 05:03 | 57.47695 | 17.92330 | 14466 ft | 315 kts | 217° |
| 2026-04-22 05:03 | 57.45900 | 17.89913 | 15160 ft | 317 kts | 224° |
| 2026-04-22 05:03 | 57.44421 | 17.86988 | 15826 ft | 318 kts | 230° |
| 2026-04-22 05:03 | 57.42928 | 17.83896 | 16477 ft | 321 kts | 231° |
| 2026-04-22 05:04 | 57.41468 | 17.80824 | 17142 ft | 323 kts | 231° |
| 2026-04-22 05:04 | 57.39980 | 17.77669 | 17776 ft | 326 kts | 231° |
| 2026-04-22 05:04 | 57.38500 | 17.74519 | 18392 ft | 329 kts | 231° |
| 2026-04-22 05:04 | 57.36980 | 17.71282 | 19002 ft | 332 kts | 231° |
| 2026-04-22 05:05 | 57.35469 | 17.68064 | 19625 ft | 334 kts | 231° |
| 2026-04-22 05:05 | 57.33958 | 17.64844 | 20182 ft | 337 kts | 231° |
| 2026-04-22 05:05 | 57.32422 | 17.61577 | 20740 ft | 340 kts | 231° |
| 2026-04-22 05:05 | 57.30860 | 17.58255 | 21312 ft | 342 kts | 231° |
| 2026-04-22 05:06 | 57.29281 | 17.54891 | 21823 ft | 346 kts | 231° |
| 2026-04-22 05:06 | 57.27712 | 17.51554 | 22363 ft | 349 kts | 231° |
| 2026-04-22 05:06 | 57.26124 | 17.48195 | 22896 ft | 351 kts | 230° |
| 2026-04-22 05:06 | 57.24501 | 17.44766 | 23402 ft | 354 kts | 230° |
| 2026-04-22 05:07 | 57.22897 | 17.41374 | 23898 ft | 357 kts | 230° |
| 2026-04-22 05:07 | 57.21259 | 17.37905 | 24396 ft | 359 kts | 230° |
| 2026-04-22 05:07 | 57.19605 | 17.34399 | 24848 ft | 363 kts | 230° |
| 2026-04-22 05:07 | 57.17948 | 17.30868 | 25292 ft | 366 kts | 230° |
| 2026-04-22 05:08 | 57.16283 | 17.27339 | 25761 ft | 368 kts | 230° |
| 2026-04-22 05:08 | 57.14602 | 17.23781 | 26212 ft | 371 kts | 230° |
| 2026-04-22 05:08 | 57.12884 | 17.20158 | 26624 ft | 375 kts | 230° |
| 2026-04-22 05:08 | 57.11165 | 17.16541 | 27071 ft | 377 kts | 230° |
| 2026-04-22 05:09 | 57.09437 | 17.12910 | 27461 ft | 380 kts | 230° |
| 2026-04-22 05:09 | 57.07696 | 17.09244 | 27910 ft | 382 kts | 230° |
| 2026-04-22 05:09 | 57.05945 | 17.05549 | 28282 ft | 385 kts | 230° |
| 2026-04-22 05:09 | 57.04209 | 17.01881 | 28677 ft | 388 kts | 230° |
| 2026-04-22 05:10 | 57.02411 | 16.98088 | 29086 ft | 390 kts | 230° |
| 2026-04-22 05:10 | 57.00644 | 16.94387 | 29471 ft | 392 kts | 229° |
| 2026-04-22 05:10 | 56.98840 | 16.90624 | 29847 ft | 394 kts | 229° |
| 2026-04-22 05:10 | 56.97037 | 16.86878 | 30206 ft | 396 kts | 229° |
| 2026-04-22 05:11 | 56.95208 | 16.83064 | 30537 ft | 400 kts | 230° |
| 2026-04-22 05:11 | 56.93378 | 16.79268 | 30875 ft | 402 kts | 229° |
| 2026-04-22 05:11 | 56.91524 | 16.75438 | 31187 ft | 405 kts | 230° |
| 2026-04-22 05:11 | 56.89637 | 16.71557 | 31478 ft | 408 kts | 229° |
| 2026-04-22 05:12 | 56.87754 | 16.67696 | 31765 ft | 410 kts | 229° |
| 2026-04-22 05:12 | 56.85847 | 16.63799 | 32043 ft | 412 kts | 230° |
| 2026-04-22 05:12 | 56.83952 | 16.59921 | 32293 ft | 415 kts | 229° |
| 2026-04-22 05:12 | 56.82038 | 16.56020 | 32552 ft | 417 kts | 229° |
| 2026-04-22 05:13 | 56.80098 | 16.52079 | 32813 ft | 420 kts | 229° |
| 2026-04-22 05:13 | 56.78152 | 16.48127 | 33063 ft | 422 kts | 229° |
| 2026-04-22 05:13 | 56.76192 | 16.44152 | 33313 ft | 424 kts | 229° |
| 2026-04-22 05:13 | 56.74228 | 16.40168 | 33524 ft | 427 kts | 229° |
| 2026-04-22 05:14 | 56.72221 | 16.36102 | 33751 ft | 429 kts | 229° |
| 2026-04-22 05:14 | 56.70195 | 16.32180 | 33927 ft | 431 kts | 219° |
| 2026-04-22 05:14 | 56.67646 | 16.29489 | 34120 ft | 428 kts | 198° |
| 2026-04-22 05:15 | 56.62048 | 16.25644 | 34411 ft | 434 kts | 197° |
| 2026-04-22 05:15 | 56.59199 | 16.23770 | 34603 ft | 435 kts | 197° |
| 2026-04-22 05:15 | 56.56356 | 16.21968 | 34803 ft | 436 kts | 196° |
| 2026-04-22 05:15 | 56.53513 | 16.20190 | 34984 ft | 437 kts | 196° |
| 2026-04-22 05:16 | 56.50658 | 16.18405 | 35093 ft | 429 kts | 196° |
| 2026-04-22 05:16 | 56.45061 | 16.15025 | 35164 ft | 426 kts | 195° |
| 2026-04-22 05:17 | 56.39388 | 16.11676 | 35190 ft | 435 kts | 195° |
| 2026-04-22 05:17 | 56.33580 | 16.08268 | 35202 ft | 446 kts | 195° |
| 2026-04-22 05:18 | 56.24560 | 16.03020 | 35219 ft | 462 kts | 195° |
| 2026-04-22 05:18 | 56.18402 | 15.99481 | 35196 ft | 471 kts | 195° |
| 2026-04-22 05:19 | 56.12101 | 15.95893 | 35192 ft | 477 kts | 195° |
| 2026-04-22 05:19 | 56.05794 | 15.92316 | 35199 ft | 481 kts | 195° |
| 2026-04-22 05:20 | 55.99424 | 15.88704 | 35194 ft | 483 kts | 195° |
| 2026-04-22 05:20 | 55.93003 | 15.85070 | 35200 ft | 485 kts | 195° |
| 2026-04-22 05:21 | 55.86596 | 15.81463 | 35193 ft | 485 kts | 195° |
| 2026-04-22 05:21 | 55.80199 | 15.77881 | 35197 ft | 484 kts | 195° |
| 2026-04-22 05:22 | 55.73812 | 15.74315 | 35198 ft | 484 kts | 195° |
| 2026-04-22 05:22 | 55.67391 | 15.70733 | 35198 ft | 484 kts | 195° |
| 2026-04-22 05:23 | 55.60979 | 15.67164 | 35197 ft | 485 kts | 195° |
| 2026-04-22 05:23 | 55.54570 | 15.63631 | 35202 ft | 485 kts | 195° |
| 2026-04-22 05:24 | 55.48178 | 15.60130 | 35207 ft | 485 kts | 195° |
| 2026-04-22 05:24 | 55.41763 | 15.56644 | 35205 ft | 485 kts | 195° |
| 2026-04-22 05:25 | 55.35302 | 15.53140 | 35209 ft | 485 kts | 195° |
| 2026-04-22 05:25 | 55.28904 | 15.49673 | 35211 ft | 485 kts | 195° |
| 2026-04-22 05:26 | 55.22480 | 15.46195 | 35215 ft | 485 kts | 195° |
| 2026-04-22 05:26 | 55.16050 | 15.42727 | 35218 ft | 485 kts | 195° |
| 2026-04-22 05:27 | 55.09590 | 15.39263 | 35222 ft | 485 kts | 195° |
| 2026-04-22 05:27 | 55.03149 | 15.35844 | 35227 ft | 485 kts | 195° |
| 2026-04-22 05:28 | 54.96733 | 15.32371 | 35219 ft | 485 kts | 194° |
| 2026-04-22 05:28 | 54.93431 | 15.31373 | 35204 ft | 474 kts | 175° |
| 2026-04-22 05:28 | 54.90274 | 15.32278 | 35241 ft | 461 kts | 158° |
| 2026-04-22 05:29 | 54.84090 | 15.35514 | 35216 ft | 463 kts | 158° |
| 2026-04-22 05:29 | 54.77949 | 15.38911 | 35215 ft | 463 kts | 156° |
| 2026-04-22 05:30 | 54.71854 | 15.42395 | 35216 ft | 463 kts | 155° |
| 2026-04-22 05:30 | 54.65761 | 15.45983 | 35218 ft | 463 kts | 155° |
| 2026-04-22 05:31 | 54.59689 | 15.49557 | 35217 ft | 463 kts | 155° |
| 2026-04-22 05:31 | 54.53635 | 15.53134 | 35217 ft | 463 kts | 155° |
| 2026-04-22 05:32 | 54.47547 | 15.56773 | 35227 ft | 462 kts | 155° |
| 2026-04-22 05:32 | 54.41510 | 15.60398 | 35227 ft | 462 kts | 155° |
| 2026-04-22 05:33 | 54.35470 | 15.64033 | 35229 ft | 462 kts | 155° |
| 2026-04-22 05:33 | 54.29444 | 15.67716 | 35240 ft | 462 kts | 156° |
| 2026-04-22 05:34 | 54.23400 | 15.71365 | 35237 ft | 463 kts | 156° |
| 2026-04-22 05:34 | 54.17345 | 15.74967 | 35238 ft | 462 kts | 156° |
| 2026-04-22 05:35 | 54.11277 | 15.78602 | 35243 ft | 462 kts | 156° |
| 2026-04-22 05:35 | 54.05249 | 15.82185 | 35237 ft | 462 kts | 155° |
| 2026-04-22 05:36 | 53.99188 | 15.85789 | 35235 ft | 462 kts | 156° |
| 2026-04-22 05:36 | 53.93174 | 15.89348 | 35235 ft | 462 kts | 156° |
| 2026-04-22 05:37 | 53.87091 | 15.92917 | 35223 ft | 462 kts | 156° |
| 2026-04-22 05:37 | 53.81061 | 15.96463 | 35225 ft | 462 kts | 155° |
| 2026-04-22 05:38 | 53.74991 | 16.00031 | 35216 ft | 462 kts | 155° |
| 2026-04-22 05:38 | 53.68934 | 16.03573 | 35216 ft | 462 kts | 156° |
| 2026-04-22 05:39 | 53.62892 | 16.07075 | 35224 ft | 462 kts | 156° |
| 2026-04-22 05:39 | 53.56799 | 16.10597 | 35223 ft | 462 kts | 156° |
| 2026-04-22 05:40 | 53.50777 | 16.14083 | 35225 ft | 462 kts | 156° |
| 2026-04-22 05:40 | 53.44714 | 16.17590 | 35226 ft | 463 kts | 156° |
| 2026-04-22 05:41 | 53.38625 | 16.21098 | 35225 ft | 463 kts | 156° |
| 2026-04-22 05:41 | 53.32559 | 16.24579 | 35225 ft | 463 kts | 156° |
| 2026-04-22 05:42 | 53.26483 | 16.28058 | 35226 ft | 463 kts | 156° |
| 2026-04-22 05:42 | 53.20424 | 16.31522 | 35229 ft | 463 kts | 156° |
| 2026-04-22 05:43 | 53.14325 | 16.35011 | 35228 ft | 464 kts | 155° |
| 2026-04-22 05:43 | 53.08253 | 16.38478 | 35230 ft | 464 kts | 155° |
| 2026-04-22 05:44 | 53.02174 | 16.41955 | 35237 ft | 464 kts | 155° |
| 2026-04-22 05:44 | 52.96087 | 16.45411 | 35243 ft | 463 kts | 156° |
| 2026-04-22 05:45 | 52.89983 | 16.48825 | 35250 ft | 463 kts | 156° |
| 2026-04-22 05:45 | 52.83918 | 16.52207 | 35243 ft | 464 kts | 156° |
| 2026-04-22 05:46 | 52.77786 | 16.55633 | 35237 ft | 464 kts | 156° |
| 2026-04-22 05:46 | 52.71724 | 16.59009 | 35249 ft | 463 kts | 156° |
| 2026-04-22 05:47 | 52.65638 | 16.62390 | 35248 ft | 463 kts | 156° |
| 2026-04-22 05:47 | 52.59530 | 16.65767 | 35243 ft | 463 kts | 156° |
| 2026-04-22 05:48 | 52.53457 | 16.69146 | 35252 ft | 464 kts | 157° |
| 2026-04-22 05:48 | 52.47328 | 16.72515 | 35255 ft | 465 kts | 156° |
| 2026-04-22 05:49 | 52.41227 | 16.75867 | 35246 ft | 465 kts | 156° |
| 2026-04-22 05:49 | 52.35092 | 16.79226 | 35231 ft | 465 kts | 156° |
| 2026-04-22 05:50 | 52.28990 | 16.82554 | 35235 ft | 465 kts | 157° |
| 2026-04-22 05:50 | 52.22853 | 16.85895 | 35233 ft | 465 kts | 157° |
| 2026-04-22 05:51 | 52.16734 | 16.89223 | 35235 ft | 465 kts | 157° |
| 2026-04-22 05:51 | 52.10610 | 16.92551 | 35237 ft | 465 kts | 157° |
| 2026-04-22 05:52 | 52.04503 | 16.95874 | 35241 ft | 465 kts | 157° |
| 2026-04-22 05:52 | 51.98396 | 16.99189 | 35250 ft | 465 kts | 157° |
| 2026-04-22 05:53 | 51.92269 | 17.02493 | 35247 ft | 466 kts | 157° |
| 2026-04-22 05:53 | 51.86101 | 17.05791 | 35239 ft | 465 kts | 157° |
| 2026-04-22 05:54 | 51.79987 | 17.09038 | 35239 ft | 465 kts | 158° |
| 2026-04-22 05:54 | 51.73852 | 17.12287 | 35239 ft | 465 kts | 157° |
| 2026-04-22 05:55 | 51.67718 | 17.15537 | 35234 ft | 465 kts | 158° |
| 2026-04-22 05:55 | 51.61570 | 17.18781 | 35232 ft | 465 kts | 157° |
| 2026-04-22 05:56 | 51.55454 | 17.21969 | 35234 ft | 465 kts | 158° |
| 2026-04-22 05:56 | 51.49316 | 17.25164 | 35235 ft | 465 kts | 158° |
| 2026-04-22 05:57 | 51.43174 | 17.28363 | 35233 ft | 465 kts | 158° |
| 2026-04-22 05:57 | 51.37039 | 17.31565 | 35236 ft | 465 kts | 157° |
| 2026-04-22 05:58 | 51.30916 | 17.34746 | 35231 ft | 465 kts | 158° |
| 2026-04-22 05:58 | 51.24762 | 17.37942 | 35231 ft | 465 kts | 158° |
| 2026-04-22 05:59 | 51.18617 | 17.41114 | 35232 ft | 465 kts | 158° |
| 2026-04-22 05:59 | 51.12481 | 17.44297 | 35232 ft | 465 kts | 158° |
| 2026-04-22 06:00 | 51.06365 | 17.47468 | 35232 ft | 465 kts | 158° |
| 2026-04-22 06:00 | 51.00215 | 17.50651 | 35230 ft | 466 kts | 158° |
| 2026-04-22 06:01 | 50.94047 | 17.53829 | 35226 ft | 466 kts | 158° |
| 2026-04-22 06:01 | 50.87877 | 17.57013 | 35219 ft | 466 kts | 158° |
| 2026-04-22 06:02 | 50.81721 | 17.60162 | 35217 ft | 466 kts | 158° |
| 2026-04-22 06:02 | 50.75596 | 17.63252 | 35218 ft | 465 kts | 158° |
| 2026-04-22 06:03 | 50.69452 | 17.66354 | 35225 ft | 464 kts | 158° |
| 2026-04-22 06:03 | 50.63319 | 17.69468 | 35226 ft | 465 kts | 159° |
| 2026-04-22 06:04 | 50.57159 | 17.72559 | 35225 ft | 465 kts | 159° |
| 2026-04-22 06:04 | 50.51015 | 17.75646 | 35221 ft | 465 kts | 159° |
| 2026-04-22 06:05 | 50.44872 | 17.78739 | 35218 ft | 465 kts | 159° |
| 2026-04-22 06:05 | 50.38717 | 17.81850 | 35213 ft | 465 kts | 159° |
| 2026-04-22 06:06 | 50.32589 | 17.84945 | 35213 ft | 465 kts | 159° |
| 2026-04-22 06:06 | 50.26468 | 17.88013 | 35206 ft | 465 kts | 159° |
| 2026-04-22 06:07 | 50.20296 | 17.91069 | 35193 ft | 465 kts | 159° |
| 2026-04-22 06:07 | 50.14178 | 17.94079 | 35188 ft | 465 kts | 159° |
| 2026-04-22 06:08 | 50.07985 | 17.97115 | 35193 ft | 465 kts | 159° |
| 2026-04-22 06:08 | 50.01642 | 17.98706 | 35243 ft | 467 kts | 178° |
| 2026-04-22 06:09 | 49.95117 | 17.98677 | 35188 ft | 471 kts | 179° |
| 2026-04-22 06:09 | 49.88571 | 17.98531 | 35179 ft | 471 kts | 179° |
| 2026-04-22 06:10 | 49.82027 | 17.98359 | 35182 ft | 472 kts | 180° |
| 2026-04-22 06:10 | 49.75491 | 17.98105 | 35176 ft | 472 kts | 180° |
| 2026-04-22 06:11 | 49.68949 | 17.97846 | 35178 ft | 472 kts | 180° |
| 2026-04-22 06:11 | 49.62401 | 17.97585 | 35179 ft | 472 kts | 180° |
| 2026-04-22 06:12 | 49.55813 | 17.97339 | 35172 ft | 472 kts | 180° |
| 2026-04-22 06:12 | 49.49284 | 17.97080 | 35176 ft | 471 kts | 180° |
| 2026-04-22 06:13 | 49.42727 | 17.96791 | 35164 ft | 472 kts | 180° |
| 2026-04-22 06:13 | 49.36185 | 17.96479 | 35162 ft | 472 kts | 181° |
| 2026-04-22 06:14 | 49.29674 | 17.96184 | 35161 ft | 472 kts | 180° |
| 2026-04-22 06:14 | 49.23120 | 17.95885 | 35160 ft | 471 kts | 180° |
| 2026-04-22 06:15 | 49.16577 | 17.95575 | 35156 ft | 471 kts | 181° |
| 2026-04-22 06:15 | 49.10046 | 17.95281 | 35155 ft | 471 kts | 181° |
| 2026-04-22 06:16 | 49.03490 | 17.95148 | 35117 ft | 470 kts | 173° |
| 2026-04-22 06:16 | 48.96995 | 17.95968 | 35135 ft | 471 kts | 174° |
| 2026-04-22 06:17 | 48.90461 | 17.96822 | 35131 ft | 471 kts | 174° |
| 2026-04-22 06:17 | 48.83959 | 17.97702 | 35127 ft | 470 kts | 174° |
| 2026-04-22 06:18 | 48.77443 | 17.98569 | 35124 ft | 470 kts | 174° |
| 2026-04-22 06:18 | 48.70984 | 17.99427 | 35125 ft | 470 kts | 174° |
| 2026-04-22 06:19 | 48.64475 | 18.00304 | 35138 ft | 470 kts | 174° |
| 2026-04-22 06:19 | 48.57990 | 18.01176 | 35149 ft | 470 kts | 174° |
| 2026-04-22 06:20 | 48.51453 | 18.02051 | 35158 ft | 470 kts | 174° |
| 2026-04-22 06:20 | 48.44969 | 18.02911 | 35164 ft | 470 kts | 174° |
| 2026-04-22 06:21 | 48.38503 | 18.03765 | 35164 ft | 470 kts | 174° |
| 2026-04-22 06:21 | 48.31961 | 18.04622 | 35164 ft | 470 kts | 174° |
| 2026-04-22 06:22 | 48.25436 | 18.04925 | 35158 ft | 471 kts | 179° |
| 2026-04-22 06:22 | 48.18909 | 18.05083 | 35161 ft | 471 kts | 179° |
| 2026-04-22 06:23 | 48.12401 | 18.05245 | 35175 ft | 471 kts | 178° |
| 2026-04-22 06:23 | 48.05844 | 18.05418 | 35178 ft | 471 kts | 179° |
| 2026-04-22 06:24 | 47.96053 | 18.05710 | 35182 ft | 471 kts | 179° |
| 2026-04-22 06:25 | 47.89503 | 18.05868 | 35179 ft | 471 kts | 179° |
| 2026-04-22 06:25 | 47.82984 | 18.06007 | 35178 ft | 471 kts | 179° |
| 2026-04-22 06:26 | 47.76464 | 18.06479 | 35145 ft | 469 kts | 165° |
| 2026-04-22 06:26 | 47.70244 | 18.09286 | 35179 ft | 469 kts | 162° |
| 2026-04-22 06:27 | 47.64035 | 18.12188 | 35169 ft | 470 kts | 162° |
| 2026-04-22 06:27 | 47.57836 | 18.15133 | 35159 ft | 471 kts | 162° |
| 2026-04-22 06:28 | 47.51587 | 18.18143 | 35165 ft | 472 kts | 161° |
| 2026-04-22 06:28 | 47.45377 | 18.21136 | 35158 ft | 472 kts | 162° |
| 2026-04-22 06:29 | 47.39125 | 18.24120 | 35159 ft | 472 kts | 161° |
| 2026-04-22 06:29 | 47.32896 | 18.27091 | 35151 ft | 473 kts | 162° |
| 2026-04-22 06:30 | 47.26653 | 18.30084 | 35149 ft | 472 kts | 161° |
| 2026-04-22 06:30 | 47.20437 | 18.33059 | 35153 ft | 472 kts | 162° |
| 2026-04-22 06:31 | 47.14189 | 18.36035 | 35160 ft | 472 kts | 162° |
| 2026-04-22 06:31 | 47.07967 | 18.38982 | 35161 ft | 472 kts | 162° |
| 2026-04-22 06:32 | 47.01738 | 18.41931 | 35161 ft | 473 kts | 162° |
| 2026-04-22 06:32 | 46.95457 | 18.44912 | 35160 ft | 473 kts | 162° |
| 2026-04-22 06:33 | 46.89193 | 18.47896 | 35159 ft | 474 kts | 162° |
| 2026-04-22 06:33 | 46.82955 | 18.50878 | 35156 ft | 474 kts | 162° |
| 2026-04-22 06:34 | 46.76719 | 18.53867 | 35147 ft | 474 kts | 162° |
| 2026-04-22 06:34 | 46.70450 | 18.56867 | 35149 ft | 474 kts | 162° |
| 2026-04-22 06:35 | 46.64215 | 18.59799 | 35145 ft | 474 kts | 163° |
| 2026-04-22 06:35 | 46.57914 | 18.62733 | 35147 ft | 474 kts | 163° |
| 2026-04-22 06:36 | 46.51649 | 18.65669 | 35148 ft | 475 kts | 163° |
| 2026-04-22 06:36 | 46.45391 | 18.68616 | 35146 ft | 475 kts | 163° |
| 2026-04-22 06:37 | 46.39101 | 18.71548 | 35145 ft | 475 kts | 163° |
| 2026-04-22 06:37 | 46.32832 | 18.74460 | 35147 ft | 475 kts | 163° |
| 2026-04-22 06:38 | 46.26534 | 18.77395 | 35147 ft | 475 kts | 163° |
| 2026-04-22 06:38 | 46.20264 | 18.80334 | 35148 ft | 476 kts | 163° |
| 2026-04-22 06:39 | 46.14012 | 18.83267 | 35147 ft | 476 kts | 163° |
| 2026-04-22 06:39 | 46.07724 | 18.86190 | 35147 ft | 475 kts | 164° |
| 2026-04-22 06:40 | 46.01399 | 18.89077 | 35149 ft | 475 kts | 164° |
| 2026-04-22 06:40 | 45.95149 | 18.91960 | 35144 ft | 476 kts | 161° |
| 2026-04-22 06:40 | 45.92216 | 18.94246 | 35183 ft | 476 kts | 150° |
| 2026-04-22 06:41 | 45.89395 | 18.96738 | 35134 ft | 478 kts | 149° |
| 2026-04-22 06:41 | 45.83733 | 19.01767 | 35145 ft | 479 kts | 149° |
| 2026-04-22 06:42 | 45.78081 | 19.06797 | 35148 ft | 480 kts | 149° |
| 2026-04-22 06:42 | 45.72413 | 19.11837 | 35145 ft | 480 kts | 149° |
| 2026-04-22 06:43 | 45.66727 | 19.16900 | 35146 ft | 481 kts | 149° |
| 2026-04-22 06:43 | 45.61086 | 19.21940 | 35140 ft | 482 kts | 149° |
| 2026-04-22 06:44 | 45.55407 | 19.27034 | 35135 ft | 482 kts | 149° |
| 2026-04-22 06:44 | 45.49746 | 19.32124 | 35136 ft | 483 kts | 149° |
| 2026-04-22 06:45 | 45.44064 | 19.37222 | 35131 ft | 483 kts | 149° |
| 2026-04-22 06:45 | 45.41119 | 19.39489 | 35103 ft | 478 kts | 162° |
| 2026-04-22 06:45 | 45.38023 | 19.41157 | 35146 ft | 478 kts | 161° |
| 2026-04-22 06:46 | 45.31802 | 19.44478 | 35128 ft | 479 kts | 162° |
| 2026-04-22 06:46 | 45.25543 | 19.47751 | 35135 ft | 479 kts | 162° |
| 2026-04-22 06:47 | 45.19313 | 19.51018 | 35133 ft | 480 kts | 163° |
| 2026-04-22 06:47 | 45.13053 | 19.54247 | 35133 ft | 480 kts | 163° |
| 2026-04-22 06:48 | 45.06764 | 19.57451 | 35134 ft | 480 kts | 163° |
| 2026-04-22 06:48 | 45.00499 | 19.60636 | 35134 ft | 481 kts | 163° |
| 2026-04-22 06:49 | 44.94189 | 19.63840 | 35133 ft | 481 kts | 163° |
| 2026-04-22 06:49 | 44.87892 | 19.67059 | 35125 ft | 481 kts | 163° |
| 2026-04-22 06:50 | 44.81611 | 19.70285 | 35121 ft | 481 kts | 163° |
| 2026-04-22 06:50 | 44.75361 | 19.73486 | 35123 ft | 481 kts | 164° |
| 2026-04-22 06:51 | 44.69052 | 19.76675 | 35123 ft | 481 kts | 164° |
| 2026-04-22 06:51 | 44.62758 | 19.79844 | 35130 ft | 481 kts | 164° |
| 2026-04-22 06:52 | 44.56467 | 19.82970 | 35126 ft | 482 kts | 165° |
| 2026-04-22 06:52 | 44.50163 | 19.86102 | 35129 ft | 482 kts | 165° |
| 2026-04-22 06:53 | 44.43867 | 19.89249 | 35127 ft | 482 kts | 165° |
| 2026-04-22 06:53 | 44.37571 | 19.92406 | 35127 ft | 482 kts | 165° |
| 2026-04-22 06:54 | 44.31251 | 19.95569 | 35125 ft | 483 kts | 165° |
| 2026-04-22 06:54 | 44.24941 | 19.98708 | 35127 ft | 483 kts | 165° |
| 2026-04-22 06:55 | 44.18619 | 20.01820 | 35115 ft | 483 kts | 165° |
| 2026-04-22 06:55 | 44.12271 | 20.04937 | 35114 ft | 483 kts | 165° |
| 2026-04-22 06:56 | 44.05946 | 20.08011 | 35098 ft | 484 kts | 165° |
| 2026-04-22 06:56 | 43.99582 | 20.11136 | 35099 ft | 484 kts | 165° |
| 2026-04-22 06:57 | 43.93247 | 20.14259 | 35085 ft | 485 kts | 165° |
| 2026-04-22 06:57 | 43.86902 | 20.17381 | 35104 ft | 485 kts | 165° |
| 2026-04-22 06:58 | 43.80535 | 20.20467 | 35099 ft | 485 kts | 166° |
| 2026-04-22 06:58 | 43.74194 | 20.23533 | 34949 ft | 477 kts | 166° |
| 2026-04-22 06:58 | 43.71122 | 20.25024 | 34483 ft | 467 kts | 166° |
| 2026-04-22 06:59 | 43.68100 | 20.26487 | 34041 ft | 458 kts | 167° |
| 2026-04-22 06:59 | 43.65119 | 20.27918 | 33650 ft | 450 kts | 167° |
| 2026-04-22 06:59 | 43.62208 | 20.29324 | 33290 ft | 443 kts | 167° |
| 2026-04-22 06:59 | 43.59290 | 20.30743 | 32932 ft | 438 kts | 167° |
| 2026-04-22 07:00 | 43.56443 | 20.32129 | 32556 ft | 438 kts | 167° |
| 2026-04-22 07:00 | 43.53572 | 20.33524 | 32203 ft | 439 kts | 168° |
| 2026-04-22 07:00 | 43.50689 | 20.34902 | 31763 ft | 438 kts | 168° |
| 2026-04-22 07:00 | 43.47839 | 20.36257 | 31320 ft | 435 kts | 168° |
| 2026-04-22 07:01 | 43.44962 | 20.37634 | 30864 ft | 432 kts | 168° |
| 2026-04-22 07:01 | 43.42179 | 20.38986 | 30379 ft | 427 kts | 168° |
| 2026-04-22 07:01 | 43.39384 | 20.40339 | 29873 ft | 423 kts | 168° |
| 2026-04-22 07:01 | 43.36628 | 20.41665 | 29374 ft | 419 kts | 169° |
| 2026-04-22 07:02 | 43.33908 | 20.42970 | 28878 ft | 416 kts | 169° |
| 2026-04-22 07:02 | 43.31172 | 20.44269 | 28371 ft | 413 kts | 168° |
| 2026-04-22 07:02 | 43.28451 | 20.45567 | 27874 ft | 410 kts | 169° |
| 2026-04-22 07:02 | 43.25781 | 20.46842 | 27377 ft | 407 kts | 169° |
| 2026-04-22 07:03 | 43.23144 | 20.48101 | 26873 ft | 403 kts | 169° |
| 2026-04-22 07:03 | 43.20478 | 20.49360 | 26363 ft | 399 kts | 169° |
| 2026-04-22 07:03 | 43.17876 | 20.50597 | 25861 ft | 396 kts | 169° |
| 2026-04-22 07:03 | 43.15276 | 20.51832 | 25353 ft | 392 kts | 169° |
| 2026-04-22 07:04 | 43.12720 | 20.53042 | 24855 ft | 390 kts | 168° |
| 2026-04-22 07:04 | 43.10187 | 20.54248 | 24345 ft | 385 kts | 169° |
| 2026-04-22 07:04 | 43.07661 | 20.55446 | 23823 ft | 382 kts | 169° |
| 2026-04-22 07:04 | 43.05156 | 20.56640 | 23310 ft | 378 kts | 168° |
| 2026-04-22 07:05 | 43.02680 | 20.57833 | 22789 ft | 376 kts | 166° |
| 2026-04-22 07:05 | 43.00264 | 20.59102 | 22275 ft | 373 kts | 166° |
| 2026-04-22 07:05 | 42.97839 | 20.60374 | 21764 ft | 371 kts | 165° |
| 2026-04-22 07:05 | 42.95419 | 20.61649 | 21250 ft | 368 kts | 165° |
| 2026-04-22 07:06 | 42.93060 | 20.62886 | 20747 ft | 364 kts | 165° |
| 2026-04-22 07:06 | 42.90692 | 20.64134 | 20228 ft | 361 kts | 164° |
| 2026-04-22 07:06 | 42.88364 | 20.65367 | 19711 ft | 357 kts | 165° |
| 2026-04-22 07:06 | 42.86061 | 20.66593 | 19175 ft | 353 kts | 164° |
| 2026-04-22 07:07 | 42.83791 | 20.67797 | 18648 ft | 350 kts | 163° |
| 2026-04-22 07:07 | 42.81531 | 20.68994 | 18118 ft | 346 kts | 163° |
| 2026-04-22 07:07 | 42.79268 | 20.70184 | 17581 ft | 343 kts | 163° |
| 2026-04-22 07:07 | 42.77055 | 20.71351 | 17050 ft | 340 kts | 162° |
| 2026-04-22 07:08 | 42.74873 | 20.72510 | 16534 ft | 337 kts | 163° |
| 2026-04-22 07:08 | 42.72689 | 20.73659 | 16014 ft | 334 kts | 162° |
| 2026-04-22 07:08 | 42.70538 | 20.74792 | 15495 ft | 332 kts | 162° |
| 2026-04-22 07:08 | 42.68388 | 20.75909 | 14976 ft | 329 kts | 162° |
| 2026-04-22 07:09 | 42.66267 | 20.77012 | 14466 ft | 326 kts | 162° |
| 2026-04-22 07:09 | 42.64145 | 20.78127 | 13952 ft | 324 kts | 162° |
| 2026-04-22 07:09 | 42.62061 | 20.79225 | 13450 ft | 321 kts | 162° |
| 2026-04-22 07:09 | 42.59975 | 20.80323 | 12942 ft | 319 kts | 161° |
| 2026-04-22 07:10 | 42.57916 | 20.81392 | 12428 ft | 316 kts | 161° |
| 2026-04-22 07:10 | 42.55850 | 20.82474 | 11919 ft | 314 kts | 160° |
| 2026-04-22 07:10 | 42.53841 | 20.83524 | 11415 ft | 312 kts | 160° |
| 2026-04-22 07:10 | 42.51805 | 20.84578 | 10898 ft | 309 kts | 160° |
| 2026-04-22 07:11 | 42.49807 | 20.85619 | 10395 ft | 307 kts | 159° |
| 2026-04-22 07:11 | 42.47826 | 20.86658 | 9883 ft | 304 kts | 159° |
| 2026-04-22 07:11 | 42.45871 | 20.87670 | 9379 ft | 302 kts | 159° |
| 2026-04-22 07:11 | 42.43912 | 20.88681 | 8866 ft | 300 kts | 159° |
| 2026-04-22 07:12 | 42.41955 | 20.89702 | 8375 ft | 297 kts | 159° |
| 2026-04-22 07:12 | 42.40058 | 20.90690 | 8158 ft | 284 kts | 158° |
| 2026-04-22 07:12 | 42.38264 | 20.91620 | 8075 ft | 268 kts | 158° |
| 2026-04-22 07:12 | 42.36578 | 20.92493 | 8036 ft | 252 kts | 158° |
| 2026-04-22 07:13 | 42.34974 | 20.93326 | 8033 ft | 241 kts | 158° |
| 2026-04-22 07:13 | 42.33385 | 20.94150 | 8025 ft | 248 kts | 158° |
| 2026-04-22 07:13 | 42.31743 | 20.94999 | 8035 ft | 253 kts | 159° |
| 2026-04-22 07:13 | 42.30119 | 20.95834 | 8025 ft | 252 kts | 158° |
| 2026-04-22 07:14 | 42.28478 | 20.96682 | 8022 ft | 251 kts | 158° |
| 2026-04-22 07:14 | 42.26834 | 20.97531 | 8013 ft | 251 kts | 159° |
| 2026-04-22 07:14 | 42.25207 | 20.98370 | 8004 ft | 251 kts | 158° |
| 2026-04-22 07:14 | 42.23562 | 20.99218 | 7996 ft | 251 kts | 159° |
| 2026-04-22 07:15 | 42.21926 | 21.00063 | 8006 ft | 252 kts | 158° |
| 2026-04-22 07:15 | 42.20293 | 21.00902 | 8007 ft | 250 kts | 158° |
| 2026-04-22 07:15 | 42.18650 | 21.01749 | 8015 ft | 251 kts | 159° |
| 2026-04-22 07:15 | 42.17031 | 21.02584 | 8011 ft | 251 kts | 159° |
| 2026-04-22 07:16 | 42.15766 | 21.03234 | 8011 ft | 0 kts | 160° |
| 2026-04-22 07:16 | 42.15767 | 21.03233 | 8009 ft | 0 kts | 160° |
| 2026-04-22 07:16 | 42.15767 | 21.03232 | 8008 ft | 0 kts | 161° |
| 2026-04-22 07:17 | 41.95945 | 21.62634 | 777 ft | 0 kts | 75° |